Bridgewater, MI (48115)

12:29 PM EST on February 10, 2016 (GMT -0500)
Ringel Farms | | Change Station
CLOSE
Current Station
Personal Weather Station
Location: Saline, MI
Elevation: 869 ft
Nearby Weather Stations

Elev 869 ft 42.18 °N, 83.85 °W | Updated 2 minutes ago

Overcast
Overcast
21.5 °F
Feels Like 14 °F
N
6.0
Wind Variable Wind from NNW
Gusts 9.0 mph

Today
High -- | Low -- °F
--% Chance of Precip.
Yesterday
High -- | Low -- °F
Precip. -- in
Pressure 29.88 in
Visibility 10.0 miles
Clouds Few 3800 ft
Overcast 6000 ft
Windchill 14 °F
Dew Point 13 °F
Humidity 70%
Rainfall 0.00 in
Snow Depth Not available.
7:39 AM 6:01 PM
Waxing Crescent, 6% visible
METAR KARB 101653Z 32012KT 10SM FEW038 OVC060 M07/M14 A2984 RMK AO2 SLP117 T10671139
Pressure 29.88 in
Visibility 10.0 miles
Clouds Few 3800 ft
Overcast 6000 ft
Windchill 14 °F
Dew Point 13 °F
Humidity 70%
Rainfall 0.00 in
Snow Depth Not available.
7:39 AM 6:01 PM
Waxing Crescent, 6% visible
METAR KARB 101653Z 32012KT 10SM FEW038 OVC060 M07/M14 A2984 RMK AO2 SLP117 T10671139

10-Day Weather Forecast

Almanac

Astronomy

Feb. 10, 2016 Rise Set
Actual Time
Civil Twilight
Nautical Twilight
Astronomical Twilight
Moon
Length of Visible Light
Length of Day
Tomorrow will be .
, % of the Moon is Illuminated

Today's Extremes

State Highs State Lows

Community

WunderPhotos

Upload Photos

1,891,895 photos uploaded!

WunderBlog® & News

Nearby

Air Quality

  Air Quality AQ Index Pollutant
Not available.

Snow Depth

Station Depth Elevation

Earthquake Activity

City Distance Mag. Time & Date
Minimum magnitude displayed is 2.5.

Coastal Water Temperatures

Place Temperature

Stations

Nearby Weather Stations

Station Location Temp. Windchill Dew Point Humidity Wind Precip. Elev Updated Type
                   

Watches & Warnings

There are currently no watches in effect.